Time;durP1;ratioP1;P1;durP2;ratioP2;P2;SDS_P1;SDS_P2;PMS_P1;PMS_P2;Temp;Humidity;BMP_temperature;BMP_pressure;BME280_temperature;BME280_humidity;BME280_pressure;Samples;Min_cycle;Max_cycle;Signal;HPM_P1;HPM_P2
2022/03/06 00:01:03;;;;;;;5.30;2.90;;;;;;;-2.97;55.29;99918.75;5091256;28;20388;-65
2022/03/06 00:03:28;;;;;;;7.63;2.47;;;;;;;-3.00;55.00;99918.81;5071969;28;20461;-64
2022/03/06 00:05:54;;;;;;;4.05;2.42;;;;;;;-3.10;55.23;99918.16;5090857;28;20035;-64
2022/03/06 00:08:20;;;;;;;4.65;2.50;;;;;;;-3.14;55.70;99913.91;5090872;28;20052;-65
2022/03/06 00:10:46;;;;;;;5.55;2.63;;;;;;;-3.18;56.21;99918.34;5090799;28;20074;-65
2022/03/06 00:13:14;;;;;;;6.40;3.03;;;;;;;-3.30;55.77;99909.00;5090800;28;20056;-65
2022/03/06 00:15:42;;;;;;;5.57;2.83;;;;;;;-3.29;56.22;99923.81;5075414;28;20032;-65
2022/03/06 00:18:08;;;;;;;4.70;2.55;;;;;;;-3.35;56.37;99910.88;5094795;28;20388;-64
2022/03/06 00:20:34;;;;;;;5.15;2.65;;;;;;;-3.38;56.60;99909.16;5094736;28;20032;-64
2022/03/06 00:22:59;;;;;;;5.88;2.78;;;;;;;-3.41;56.59;99917.09;5094300;28;20132;-65
2022/03/06 00:25:25;;;;;;;5.00;2.50;;;;;;;-3.47;56.78;99923.34;5094901;28;20028;-65
2022/03/06 00:27:51;;;;;;;5.00;2.42;;;;;;;-3.50;56.64;99914.69;5094838;28;20119;-65
2022/03/06 00:30:16;;;;;;;5.05;2.67;;;;;;;-3.52;57.16;99919.09;5094813;28;20031;-64
2022/03/06 00:32:42;;;;;;;4.45;2.72;;;;;;;-3.59;57.19;99909.66;5094636;28;20040;-62
2022/03/06 00:35:08;;;;;;;5.47;2.83;;;;;;;-3.66;57.70;99904.53;5094475;28;20024;-63
2022/03/06 00:37:33;;;;;;;6.50;3.00;;;;;;;-3.69;57.66;99908.97;5094282;28;20462;-66
2022/03/06 00:39:59;;;;;;;6.57;3.03;;;;;;;-3.72;58.06;99909.88;5094279;28;20046;-65
2022/03/06 00:42:25;;;;;;;6.55;2.95;;;;;;;-3.75;57.87;99912.56;5093663;28;20033;-66
2022/03/06 00:44:52;;;;;;;4.85;2.90;;;;;;;-3.84;58.16;99905.75;5094312;28;20024;-66
2022/03/06 00:47:18;;;;;;;4.68;2.90;;;;;;;-3.83;58.58;99914.50;5094440;28;20028;-65
2022/03/06 00:49:43;;;;;;;5.70;2.92;;;;;;;-3.86;58.58;99917.13;5094048;28;20036;-65
2022/03/06 00:52:09;;;;;;;6.32;3.17;;;;;;;-3.90;58.73;99904.13;5075541;28;20028;-65
2022/03/06 00:54:34;;;;;;;7.68;3.30;;;;;;;-3.93;58.79;99919.03;5094934;28;20363;-64
2022/03/06 00:57:00;;;;;;;8.38;3.10;;;;;;;-3.99;58.95;99914.78;5094309;28;20111;-64
2022/03/06 00:59:32;;;;;;;8.05;3.25;;;;;;;-4.04;58.62;99898.31;5093613;28;20024;-65
2022/03/06 01:01:59;;;;;;;3.90;2.30;;;;;;;-4.03;58.77;99906.13;5076275;28;20540;-63
2022/03/06 01:04:25;;;;;;;4.63;2.85;;;;;;;-4.05;59.04;99907.06;5093680;28;20062;-65
2022/03/06 01:06:50;;;;;;;6.57;3.25;;;;;;;-4.14;59.12;99894.16;5093819;28;20028;-64
2022/03/06 01:09:16;;;;;;;6.47;3.30;;;;;;;-4.10;59.01;99903.66;5058341;28;20052;-64
2022/03/06 01:11:41;;;;;;;5.35;3.13;;;;;;;-4.14;59.04;99895.03;5093524;28;20047;-65
2022/03/06 01:14:07;;;;;;;6.68;3.10;;;;;;;-4.42;59.11;99850.22;5094635;28;20024;-65
2022/03/06 01:16:32;;;;;;;5.50;3.05;;;;;;;-4.21;59.46;99891.66;5093548;28;20024;-65
2022/03/06 01:18:58;;;;;;;5.50;3.00;;;;;;;-4.27;59.64;99893.50;5092852;28;20496;-64
2022/03/06 01:21:23;;;;;;;6.25;3.40;;;;;;;-4.29;59.75;99897.91;5094017;28;20103;-65
2022/03/06 01:23:49;;;;;;;9.85;3.38;;;;;;;-4.43;59.93;99875.50;5076156;28;20406;-65
2022/03/06 01:26:17;;;;;;;5.65;2.92;;;;;;;-4.33;59.74;99891.91;5093649;28;20145;-64
2022/03/06 01:28:42;;;;;;;7.20;3.38;;;;;;;-4.36;60.08;99898.03;5093207;28;20486;-67
2022/03/06 01:31:08;;;;;;;7.90;3.17;;;;;;;-4.36;60.28;99897.16;5093889;28;20110;-65
2022/03/06 01:33:34;;;;;;;6.68;3.60;;;;;;;-4.37;59.81;99900.66;5094082;28;20077;-64
2022/03/06 01:35:59;;;;;;;8.07;3.83;;;;;;;-4.39;60.05;99903.31;5093043;28;20040;-65
2022/03/06 01:38:25;;;;;;;7.22;3.38;;;;;;;-4.69;59.99;99852.44;5093035;28;20409;-65
2022/03/06 01:40:50;;;;;;;8.52;3.72;;;;;;;-4.42;60.18;99898.16;5092910;28;20027;-64
2022/03/06 01:43:16;;;;;;;8.60;3.22;;;;;;;-4.51;59.98;99880.88;5093915;28;20078;-65
2022/03/06 01:45:41;;;;;;;8.85;2.97;;;;;;;-4.45;59.85;99889.50;5075129;28;20028;-65
2022/03/06 01:48:09;;;;;;;7.35;3.13;;;;;;;-4.51;60.01;99901.78;5075087;28;20420;-64
2022/03/06 01:50:36;;;;;;;9.23;3.42;;;;;;;-4.53;60.04;99890.50;5093351;28;20074;-65
2022/03/06 01:53:05;;;;;;;6.05;2.90;;;;;;;-4.54;60.27;99895.72;5075367;28;20024;-67
2022/03/06 01:55:31;;;;;;;6.78;3.08;;;;;;;-4.58;60.28;99901.91;5092811;28;20047;-64
2022/03/06 01:58:00;;;;;;;5.75;3.38;;;;;;;-4.59;60.12;99889.72;5074933;28;20024;-65
2022/03/06 02:00:33;;;;;;;5.72;3.05;;;;;;;-4.63;60.47;99889.78;5092438;28;20028;-66
2022/03/06 02:02:59;;;;;;;10.00;3.67;;;;;;;-4.65;60.16;99885.47;5092787;28;20056;-65
2022/03/06 02:05:25;;;;;;;6.93;3.33;;;;;;;-4.70;60.24;99882.97;5092827;28;20028;-65
2022/03/06 02:07:50;;;;;;;11.05;4.00;;;;;;;-4.71;60.16;99882.97;5092493;28;20035;-66
2022/03/06 02:10:16;;;;;;;6.13;3.85;;;;;;;-4.73;60.48;99882.13;5092843;28;20039;-67
2022/03/06 02:12:43;;;;;;;11.90;4.05;;;;;;;-4.82;60.67;99870.09;5092454;28;20145;-65
2022/03/06 02:15:11;;;;;;;8.10;3.88;;;;;;;-4.80;61.16;99887.47;5092656;28;20035;-65
2022/03/06 02:17:38;;;;;;;8.73;4.03;;;;;;;-4.82;60.87;99883.16;5093055;28;20117;-67
2022/03/06 02:20:06;;;;;;;9.18;4.00;;;;;;;-5.17;60.93;99825.38;5091916;28;20461;-65
2022/03/06 02:22:35;;;;;;;9.13;3.97;;;;;;;-4.89;60.60;99885.00;5092399;28;20043;-66
2022/03/06 02:25:04;;;;;;;10.57;4.13;;;;;;;-4.92;61.19;99877.22;5092850;28;20040;-65
2022/03/06 02:27:30;;;;;;;8.23;3.55;;;;;;;-4.96;60.98;99886.81;5092261;28;20032;-67
2022/03/06 02:29:55;;;;;;;8.98;4.00;;;;;;;-5.02;61.29;99880.88;5092271;28;20038;-65
2022/03/06 02:32:22;;;;;;;9.50;4.03;;;;;;;-5.05;61.03;99866.09;5074722;28;20111;-64
2022/03/06 02:34:50;;;;;;;11.93;3.83;;;;;;;-5.12;61.47;99848.81;5092157;28;20032;-64
2022/03/06 02:37:20;;;;;;;8.85;4.00;;;;;;;-5.07;61.58;99863.50;5091501;28;20023;-64
2022/03/06 02:39:46;;;;;;;8.05;3.50;;;;;;;-5.08;61.69;99866.16;5092364;28;20028;-64
2022/03/06 02:42:32;;;;;;;10.85;3.78;;;;;;;-5.06;61.37;99862.63;5092614;28;20028;-62
2022/03/06 02:44:58;;;;;;;;;;;;;;;-4.92;60.47;99861.53;5092029;28;20028;-61
2022/03/06 02:47:25;;;;;;;8.63;2.97;;;;;;;-5.11;60.75;99856.59;5091601;28;20394;-58
2022/03/06 02:49:51;;;;;;;8.98;3.47;;;;;;;-5.12;61.84;99864.47;5092324;28;20063;-62
2022/03/06 02:52:18;;;;;;;12.32;3.38;;;;;;;-5.15;62.03;99864.53;5092009;28;20024;-61
2022/03/06 02:54:44;;;;;;;12.07;3.95;;;;;;;-5.21;61.82;99857.66;5073782;28;20032;-65
2022/03/06 02:57:10;;;;;;;6.53;3.33;;;;;;;-5.19;62.15;99861.09;5092756;28;20028;-64
2022/03/06 02:59:36;;;;;;;8.60;3.50;;;;;;;-5.21;62.16;99862.88;5092473;28;20027;-64
2022/03/06 03:02:04;;;;;;;7.72;3.80;;;;;;;-5.23;62.41;99856.81;5091493;28;20032;-65
2022/03/06 03:04:31;;;;;;;8.18;3.33;;;;;;;-5.26;62.45;99851.63;5091793;28;20036;-63
2022/03/06 03:06:57;;;;;;;8.18;3.67;;;;;;;-5.24;62.44;99855.09;5074229;28;20051;-64
2022/03/06 03:09:22;;;;;;;11.38;4.05;;;;;;;-5.28;63.05;99840.38;5069998;28;20476;-64
2022/03/06 03:11:54;;;;;;;6.70;3.20;;;;;;;-5.25;62.65;99848.16;5071082;28;20048;-65
2022/03/06 03:14:20;;;;;;;9.38;3.60;;;;;;;-5.33;62.71;99846.50;5070852;28;20095;-63
2022/03/06 03:16:46;;;;;;;8.75;4.10;;;;;;;-5.26;62.41;99844.66;5071434;28;20107;-64
2022/03/06 03:19:11;;;;;;;9.27;3.70;;;;;;;-5.35;62.71;99830.00;5071781;28;20016;-65
2022/03/06 03:21:37;;;;;;;9.02;3.80;;;;;;;-5.29;62.48;99836.03;5070878;28;20048;-65
2022/03/06 03:24:03;;;;;;;12.63;4.05;;;;;;;-5.34;62.48;99834.31;5071208;28;20454;-64
2022/03/06 03:26:28;;;;;;;7.18;3.65;;;;;;;-5.31;63.19;99833.44;5071542;28;20521;-65
2022/03/06 03:28:54;;;;;;;8.00;3.38;;;;;;;-5.28;62.79;99828.16;5071582;28;20381;-65
2022/03/06 03:31:21;;;;;;;9.40;4.22;;;;;;;-5.26;62.88;99826.38;5069709;28;20405;-65
2022/03/06 03:33:46;;;;;;;6.22;3.47;;;;;;;-5.28;62.99;99822.09;5070952;28;20028;-62
2022/03/06 03:36:12;;;;;;;9.73;4.03;;;;;;;-5.28;62.70;99822.09;5071292;28;20033;-66
2022/03/06 03:38:40;;;;;;;7.80;3.72;;;;;;;-5.30;62.41;99813.44;5070972;28;20029;-65
2022/03/06 03:41:06;;;;;;;10.40;3.75;;;;;;;-5.51;62.54;99776.34;5071075;28;20037;-64
2022/03/06 03:43:31;;;;;;;6.32;3.72;;;;;;;-5.31;62.82;99809.06;5069288;28;20044;-65
2022/03/06 03:46:00;;;;;;;11.05;3.70;;;;;;;-5.36;62.51;99803.94;5070895;28;20032;-66
2022/03/06 03:48:27;;;;;;;7.38;3.40;;;;;;;-5.34;62.82;99815.22;5070830;28;20025;-64
2022/03/06 03:50:52;;;;;;;10.63;4.10;;;;;;;-5.36;62.31;99807.41;5069730;28;20474;-63
2022/03/06 03:53:19;;;;;;;9.10;4.07;;;;;;;-5.40;62.49;99803.13;5070873;28;20067;-63
2022/03/06 03:55:44;;;;;;;9.55;4.18;;;;;;;-5.40;62.88;99797.91;5071140;28;20059;-64
2022/03/06 03:58:10;;;;;;;14.35;4.50;;;;;;;-5.41;63.03;99801.41;5070935;28;20104;-64
2022/03/06 04:00:35;;;;;;;8.93;4.53;;;;;;;-5.42;62.79;99804.88;5071010;28;20385;-67
2022/03/06 04:03:01;;;;;;;13.68;4.25;;;;;;;-5.42;63.16;99798.81;5070847;28;20119;-68
2022/03/06 04:05:26;;;;;;;9.52;4.45;;;;;;;-5.45;62.68;99797.13;5069625;28;20032;-67
2022/03/06 04:07:52;;;;;;;10.60;4.30;;;;;;;-5.75;62.76;99744.53;5073625;28;20052;-68
2022/03/06 04:10:17;;;;;;;8.75;4.18;;;;;;;-6.03;62.98;99702.38;5090908;28;20033;-66
2022/03/06 04:12:43;;;;;;;10.90;4.32;;;;;;;-5.41;63.03;99801.41;5091699;28;20060;-67
2022/03/06 04:15:08;;;;;;;12.05;4.50;;;;;;;-5.53;62.39;99765.06;5090791;28;20468;-67
2022/03/06 04:17:34;;;;;;;9.75;4.43;;;;;;;-5.58;62.58;99759.03;5091070;28;20040;-68
2022/03/06 04:19:59;;;;;;;9.48;4.53;;;;;;;-5.30;62.58;99803.84;5091423;28;20028;-68
2022/03/06 04:22:25;;;;;;;9.38;4.55;;;;;;;-5.25;62.11;99796.78;5090744;28;20031;-69
2022/03/06 04:24:50;;;;;;;10.32;4.72;;;;;;;-5.28;62.26;99785.56;5090646;28;20031;-65
2022/03/06 04:27:16;;;;;;;12.73;4.75;;;;;;;-5.19;61.88;99790.63;5091438;28;20461;-68
2022/03/06 04:29:41;;;;;;;7.32;4.28;;;;;;;-5.09;61.62;99801.78;5091122;28;20028;-68
2022/03/06 04:32:07;;;;;;;10.73;4.60;;;;;;;-5.09;61.49;99781.72;5090731;28;20032;-69
2022/03/06 04:34:32;;;;;;;10.57;4.68;;;;;;;-4.98;61.24;99785.91;5090942;28;20111;-67
2022/03/06 04:36:58;;;;;;;12.15;4.57;;;;;;;-4.90;60.87;99791.84;5091325;28;20040;-66
2022/03/06 04:39:23;;;;;;;9.32;4.78;;;;;;;-4.88;60.71;99774.41;5090729;28;20031;-66
2022/03/06 04:41:49;;;;;;;13.70;4.88;;;;;;;-4.76;60.61;99779.44;5073006;28;20249;-65
2022/03/06 04:44:14;;;;;;;14.40;5.20;;;;;;;-4.68;60.50;99781.91;5091041;28;20032;-65
2022/03/06 04:46:40;;;;;;;9.35;4.60;;;;;;;-4.77;60.28;99740.25;5090933;28;20040;-64
2022/03/06 04:49:06;;;;;;;12.32;5.13;;;;;;;-4.43;59.83;99784.03;5090616;28;20033;-64
2022/03/06 04:51:31;;;;;;;12.63;5.18;;;;;;;-4.56;59.07;99741.63;5090435;28;20027;-64
2022/03/06 04:53:57;;;;;;;13.63;5.43;;;;;;;-4.22;58.92;99782.75;5090991;28;20467;-64
2022/03/06 04:56:24;;;;;;;10.23;4.43;;;;;;;-4.04;58.71;99778.88;5090944;28;20024;-64
2022/03/06 04:58:50;;;;;;;12.48;5.55;;;;;;;-3.89;57.88;99771.59;5090722;28;20104;-66
2022/03/06 05:01:16;;;;;;;8.32;4.78;;;;;;;-3.74;57.49;99778.25;5092373;28;20114;-65
2022/03/06 05:03:41;;;;;;;9.98;4.60;;;;;;;-3.54;57.23;99775.16;5076580;28;20107;-64
2022/03/06 05:06:07;;;;;;;12.52;5.75;;;;;;;-2.33;55.97;99768.59;5094280;28;20036;-64
2022/03/06 05:08:32;;;;;;;13.38;5.50;;;;;;;0.25;49.12;99757.41;5093900;28;20101;-64
2022/03/06 05:10:58;;;;;;;9.10;4.72;;;;;;;2.51;43.24;99759.09;5093889;28;20036;-69
2022/03/06 05:13:24;;;;;;;9.93;5.15;;;;;;;4.42;38.78;99755.38;5094424;28;20024;-62
2022/03/06 05:15:50;;;;;;;9.13;4.95;;;;;;;6.15;35.58;99746.06;5094493;28;20066;-64
2022/03/06 05:18:16;;;;;;;9.45;4.63;;;;;;;7.72;32.70;99743.69;5093512;28;20073;-64
2022/03/06 05:20:42;;;;;;;9.52;4.93;;;;;;;9.33;29.83;99746.31;5093821;28;20028;-63
2022/03/06 05:23:07;;;;;;;15.02;4.60;;;;;;;10.69;27.76;99733.88;5075967;28;20449;-62
2022/03/06 05:25:33;;;;;;;10.88;4.90;;;;;;;11.97;26.03;99734.72;5094097;28;20463;-61
2022/03/06 05:27:58;;;;;;;8.35;4.75;;;;;;;13.02;23.98;99725.31;5093498;28;20064;-63
2022/03/06 05:30:24;;;;;;;7.32;4.63;;;;;;;13.89;22.92;99733.34;5093717;28;20035;-65
2022/03/06 05:32:50;;;;;;;12.35;4.60;;;;;;;14.56;21.73;99729.59;5094089;28;20486;-63
2022/03/06 05:35:15;;;;;;;9.85;5.20;;;;;;;15.16;20.84;99727.31;5093267;28;20400;-62
2022/03/06 05:37:41;;;;;;;8.68;5.20;;;;;;;15.66;20.03;99733.91;5092945;28;20058;-64
2022/03/06 05:40:07;;;;;;;11.07;4.90;;;;;;;16.34;19.26;99720.56;5093275;28;20024;-63
2022/03/06 05:42:33;;;;;;;8.93;5.20;;;;;;;17.02;18.36;99724.09;5093379;28;20101;-64
2022/03/06 05:44:58;;;;;;;9.02;4.90;;;;;;;17.70;17.38;99721.16;5093297;28;20086;-63
2022/03/06 05:47:24;;;;;;;8.85;4.90;;;;;;;18.42;16.16;99710.41;5092939;28;20598;-62
2022/03/06 05:49:49;;;;;;;9.57;5.40;;;;;;;18.92;15.55;99691.94;5093189;28;20028;-62
2022/03/06 05:52:16;;;;;;;8.88;5.18;;;;;;;19.68;15.19;99712.81;5092701;28;20110;-65
2022/03/06 05:54:42;;;;;;;8.15;5.28;;;;;;;20.25;14.69;99709.59;5092327;28;20039;-64
2022/03/06 05:57:08;;;;;;;18.95;5.50;;;;;;;20.71;13.74;99697.59;5092274;28;20027;-62
2022/03/06 05:59:33;;;;;;;10.10;5.50;;;;;;;21.21;13.22;99697.63;5091947;28;20027;-66
2022/03/06 06:01:59;;;;;;;6.80;5.03;;;;;;;21.69;13.19;99704.28;5092953;28;20493;-65
2022/03/06 06:04:24;;;;;;;9.60;5.55;;;;;;;22.26;12.20;99693.28;5092606;28;20035;-62
2022/03/06 06:06:50;;;;;;;12.13;5.68;;;;;;;22.88;11.75;99696.81;5092724;28;20089;-67
2022/03/06 06:09:16;;;;;;;11.93;6.15;;;;;;;23.42;11.10;99705.03;5092751;28;20135;-64
2022/03/06 06:11:42;;;;;;;10.57;5.32;;;;;;;23.82;10.83;99706.84;5074136;28;20125;-63
2022/03/06 06:14:07;;;;;;;9.50;5.30;;;;;;;24.18;10.29;99699.19;5092260;28;20055;-65
2022/03/06 06:16:33;;;;;;;11.50;5.45;;;;;;;24.62;10.38;99699.41;5092877;28;20032;-64
2022/03/06 06:18:58;;;;;;;7.13;5.40;;;;;;;24.78;10.07;99698.06;5092448;28;20024;-66
2022/03/06 06:21:24;;;;;;;9.25;5.35;;;;;;;24.59;10.06;99692.47;5057844;28;20435;-68
2022/03/06 06:23:49;;;;;;;9.02;5.25;;;;;;;24.63;9.63;99698.34;5092909;28;20462;-66
2022/03/06 06:26:15;;;;;;;8.57;5.00;;;;;;;25.14;9.43;99687.50;5074115;28;20597;-70
2022/03/06 06:28:41;;;;;;;8.90;4.85;;;;;;;25.77;8.77;99660.94;5092192;28;20110;-65
2022/03/06 06:31:07;;;;;;;9.45;5.40;;;;;;;26.45;8.35;99686.50;5092594;28;20036;-70
2022/03/06 06:33:34;;;;;;;8.70;4.90;;;;;;;26.50;8.55;99688.56;5092313;28;20351;-67
2022/03/06 06:36:00;;;;;;;7.47;4.80;;;;;;;26.83;8.20;99684.47;5091869;28;20088;-68
2022/03/06 06:38:27;;;;;;;9.68;4.82;;;;;;;27.21;7.87;99676.94;5092197;28;20507;-69
2022/03/06 06:40:53;;;;;;;9.65;4.72;;;;;;;27.48;7.87;99680.06;5092884;28;20036;-70
2022/03/06 06:43:19;;;;;;;8.30;4.93;;;;;;;27.90;7.70;99684.56;5091903;28;20491;-73
2022/03/06 06:45:45;;;;;;;6.40;4.45;;;;;;;28.34;7.08;99680.53;5091669;28;20062;-71
2022/03/06 06:48:11;;;;;;;6.47;4.57;;;;;;;28.53;6.99;99659.13;5074011;28;20414;-71
2022/03/06 06:50:36;;;;;;;9.93;4.45;;;;;;;28.84;6.76;99672.66;5091955;28;20036;-72
2022/03/06 06:53:02;;;;;;;6.55;4.82;;;;;;;29.29;6.90;99668.97;5070873;28;20064;-71
2022/03/06 06:55:28;;;;;;;6.72;4.28;;;;;;;29.20;6.76;99660.28;5092217;28;20389;-67
2022/03/06 06:57:53;;;;;;;6.13;4.30;;;;;;;29.28;6.60;99664.53;5092395;28;20075;-74
2022/03/06 07:00:19;;;;;;;6.95;4.10;;;;;;;29.47;6.52;99656.84;5081539;28;20024;-71
2022/03/06 07:02:46;;;;;;;8.05;4.43;;;;;;;30.05;6.35;99661.22;5094944;28;20032;-72
2022/03/06 07:05:12;;;;;;;9.23;4.13;;;;;;;29.74;5.95;99638.75;5092022;28;20035;-72
2022/03/06 07:07:37;;;;;;;5.80;3.92;;;;;;;29.74;5.91;99647.00;5092108;28;20056;-74
2022/03/06 07:10:04;;;;;;;5.60;3.70;;;;;;;30.00;6.03;99666.66;5092334;28;20113;-73
2022/03/06 07:12:30;;;;;;;9.43;3.88;;;;;;;30.06;5.97;99649.94;5091445;28;20115;-72
2022/03/06 07:14:56;;;;;;;5.88;3.45;;;;;;;30.29;5.63;99650.75;5073736;28;20110;-72
2022/03/06 07:17:21;;;;;;;6.80;3.70;;;;;;;30.40;5.85;99645.31;5091885;28;20032;-73
2022/03/06 07:19:47;;;;;;;6.47;4.03;;;;;;;30.82;5.41;99644.66;5091913;28;20069;-70
2022/03/06 07:22:12;;;;;;;9.15;3.75;;;;;;;30.51;5.96;99658.16;5090871;28;20040;-72
2022/03/06 07:24:38;;;;;;;5.28;3.63;;;;;;;29.55;6.16;99650.06;5091506;28;20024;-71
2022/03/06 07:27:04;;;;;;;6.18;3.80;;;;;;;29.18;6.37;99634.06;5091528;28;20462;-72
2022/03/06 07:29:29;;;;;;;8.57;3.42;;;;;;;28.50;6.65;99646.72;5092543;28;20028;-66
2022/03/06 07:31:55;;;;;;;7.65;3.50;;;;;;;28.41;6.93;99653.69;5092889;28;20105;-71
2022/03/06 07:34:20;;;;;;;9.60;3.72;;;;;;;29.11;6.18;99639.75;5091723;28;20161;-72
2022/03/06 07:36:46;;;;;;;8.68;3.65;;;;;;;29.48;5.77;99630.13;5091252;28;20024;-73
2022/03/06 07:39:11;;;;;;;9.88;3.25;;;;;;;29.56;6.03;99632.44;5074222;28;20093;-71
2022/03/06 07:41:37;;;;;;;7.57;2.88;;;;;;;29.21;6.18;99622.53;5091166;28;20031;-70
2022/03/06 07:44:02;;;;;;;8.02;2.90;;;;;;;27.42;7.04;99633.44;5091491;28;20111;-71
2022/03/06 07:46:28;;;;;;;8.13;2.72;;;;;;;26.11;7.62;99628.47;5091535;28;20028;-71
2022/03/06 07:48:53;;;;;;;3.90;2.88;;;;;;;24.96;8.00;99626.09;5091424;28;20035;-71
2022/03/06 07:51:19;;;;;;;6.93;2.95;;;;;;;24.45;8.85;99633.41;5091410;28;20021;-70
2022/03/06 07:53:45;;;;;;;6.30;3.28;;;;;;;24.15;8.74;99625.78;5073151;28;20031;-70
2022/03/06 07:56:10;;;;;;;8.50;3.35;;;;;;;23.23;9.35;99622.88;5091151;28;20036;-70
2022/03/06 07:58:36;;;;;;;7.93;3.45;;;;;;;22.19;10.09;99601.38;5091417;28;20028;-71
2022/03/06 08:01:02;;;;;;;10.27;2.78;;;;;;;21.00;10.48;99608.69;5090892;28;20085;-68
2022/03/06 08:03:27;;;;;;;11.98;3.10;;;;;;;18.85;12.36;99601.47;5091742;28;20030;-74
2022/03/06 08:05:53;;;;;;;9.68;2.80;;;;;;;16.57;14.01;99603.75;5091145;28;20107;-70
2022/03/06 08:08:18;;;;;;;6.95;3.22;;;;;;;14.40;15.99;99606.38;5091078;28;20056;-70
2022/03/06 08:10:44;;;;;;;6.97;2.90;;;;;;;12.71;17.94;99584.94;5091383;28;20120;-71
2022/03/06 08:13:09;;;;;;;5.78;3.05;;;;;;;11.66;19.28;99598.78;5091375;28;20043;-72
2022/03/06 08:15:36;;;;;;;11.32;3.33;;;;;;;10.68;20.34;99593.81;5091049;28;20028;-72
2022/03/06 08:18:02;;;;;;;13.38;3.35;;;;;;;9.84;21.25;99589.94;5091774;28;20035;-73
2022/03/06 08:20:27;;;;;;;6.35;3.10;;;;;;;9.16;22.40;99592.66;5073185;28;20408;-73
2022/03/06 08:22:53;;;;;;;10.50;2.88;;;;;;;8.28;23.11;99530.88;5090913;28;20035;-74
2022/03/06 08:25:21;;;;;;;8.93;2.58;;;;;;;8.06;23.82;99580.47;5091093;28;20119;-67
2022/03/06 08:27:47;;;;;;;5.90;2.55;;;;;;;7.55;24.33;99570.84;5091570;28;20024;-72
2022/03/06 08:30:13;;;;;;;8.38;2.70;;;;;;;7.12;24.82;99572.09;5090877;28;20373;-71
2022/03/06 08:32:39;;;;;;;12.85;2.58;;;;;;;6.67;25.45;99580.53;5091080;28;20032;-73
2022/03/06 08:35:06;;;;;;;6.15;2.67;;;;;;;6.23;26.34;99579.88;5091383;28;20032;-70
2022/03/06 08:37:32;;;;;;;7.32;2.70;;;;;;;5.93;27.04;99570.31;5095295;28;20051;-70
2022/03/06 08:39:57;;;;;;;6.50;2.65;;;;;;;5.63;27.12;99558.91;5076789;28;20393;-70
2022/03/06 08:42:23;;;;;;;6.07;2.20;;;;;;;5.42;27.67;99564.63;5095030;28;20474;-71
2022/03/06 08:44:49;;;;;;;6.40;2.30;;;;;;;5.28;27.56;99560.19;5095189;28;20035;-68
2022/03/06 08:47:14;;;;;;;4.95;2.25;;;;;;;5.10;27.00;99540.97;5094867;28;20092;-70
2022/03/06 08:49:40;;;;;;;5.07;2.15;;;;;;;4.98;27.79;99510.75;5094699;28;20031;-71
2022/03/06 08:52:05;;;;;;;4.78;1.92;;;;;;;5.23;27.55;99548.19;5094830;28;20036;-70
2022/03/06 08:54:31;;;;;;;6.45;2.13;;;;;;;5.15;27.99;99538.03;5095261;28;20464;-72
2022/03/06 08:56:56;;;;;;;4.85;2.38;;;;;;;4.95;28.12;99542.78;5094618;28;20036;-72
2022/03/06 08:59:22;;;;;;;13.82;2.60;;;;;;;4.83;28.67;99540.91;5076635;28;20478;-72
2022/03/06 09:01:47;;;;;;;6.88;2.65;;;;;;;4.67;27.97;99533.00;5094437;28;20039;-70
2022/03/06 09:04:14;;;;;;;5.88;2.28;;;;;;;4.50;28.28;99537.56;5094962;28;20448;-73
2022/03/06 09:06:41;;;;;;;6.50;1.80;;;;;;;4.32;28.90;99518.28;5094501;28;20373;-73
2022/03/06 09:09:07;;;;;;;4.93;2.03;;;;;;;4.32;28.29;99531.53;5094502;28;20060;-72
2022/03/06 09:11:33;;;;;;;9.90;2.20;;;;;;;4.23;28.75;99526.78;5094405;28;20089;-71
2022/03/06 09:13:59;;;;;;;6.18;1.60;;;;;;;4.22;28.61;99517.13;5094455;28;20065;-70
2022/03/06 09:16:25;;;;;;;5.82;1.63;;;;;;;4.10;28.72;99490.44;5094523;28;20103;-71
2022/03/06 09:18:51;;;;;;;3.97;1.55;;;;;;;4.14;29.23;99507.84;5093959;28;20103;-71
2022/03/06 09:21:16;;;;;;;5.72;1.70;;;;;;;3.98;29.39;99499.09;5094396;28;20036;-71
2022/03/06 09:23:42;;;;;;;3.35;1.52;;;;;;;3.91;29.74;99498.59;5095013;28;20028;-71
2022/03/06 09:26:08;;;;;;;5.72;1.88;;;;;;;3.87;29.72;99492.63;5094288;28;20035;-70
2022/03/06 09:28:33;;;;;;;6.00;1.45;;;;;;;3.97;30.03;99500.03;5075737;28;20431;-71
2022/03/06 09:30:59;;;;;;;6.28;1.80;;;;;;;3.88;29.69;99459.91;5093345;28;20028;-68
2022/03/06 09:33:24;;;;;;;6.47;1.65;;;;;;;4.12;29.82;99491.19;5094060;28;20115;-70
2022/03/06 09:35:50;;;;;;;6.05;1.73;;;;;;;4.17;28.56;99485.59;5093673;28;20119;-72
2022/03/06 09:38:15;;;;;;;6.57;1.40;;;;;;;4.11;29.00;99494.78;5093431;28;20487;-71
2022/03/06 09:40:44;;;;;;;7.65;1.95;;;;;;;4.08;29.10;99480.84;5093447;28;20036;-70
2022/03/06 09:43:14;;;;;;;6.40;2.30;;;;;;;4.15;29.69;99491.00;5093303;28;20032;-72
2022/03/06 09:45:42;;;;;;;5.53;1.90;;;;;;;4.29;29.08;99484.88;5093380;28;20035;-72
2022/03/06 09:48:08;;;;;;;8.52;1.77;;;;;;;4.40;29.03;99494.84;5091842;28;20039;-66
2022/03/06 09:50:34;;;;;;;5.03;1.73;;;;;;;4.41;28.85;99467.38;5093592;28;20111;-72
2022/03/06 09:52:59;;;;;;;5.95;1.60;;;;;;;4.38;28.84;99456.97;5093392;28;20081;-70
2022/03/06 09:55:28;;;;;;;3.22;1.60;;;;;;;4.49;28.88;99468.69;5074883;28;20401;-71
2022/03/06 09:57:56;;;;;;;5.22;1.67;;;;;;;4.64;28.69;99456.28;5092992;28;20107;-70
2022/03/06 10:00:21;;;;;;;5.05;1.58;;;;;;;4.85;28.56;99447.00;5093106;28;20491;-69
2022/03/06 10:02:58;;;;;;;4.57;1.40;;;;;;;4.81;27.99;99412.81;5092730;28;20024;-71
2022/03/06 10:05:37;;;;;;;5.63;1.63;;;;;;;5.10;27.60;99456.06;5092881;28;20035;-71
2022/03/06 10:08:22;;;;;;;5.30;1.50;;;;;;;4.97;28.10;99463.13;5092853;28;20056;-70
2022/03/06 10:11:02;;;;;;;3.42;1.48;;;;;;;4.90;28.04;99452.03;5093024;28;20126;-70
2022/03/06 10:13:35;;;;;;;4.93;1.63;;;;;;;4.83;28.07;99442.75;5093404;28;20089;-71
2022/03/06 10:16:03;;;;;;;3.65;1.60;;;;;;;4.64;28.48;99438.59;5092758;28;20038;-69
2022/03/06 10:18:53;;;;;;;4.32;1.80;;;;;;;4.52;28.59;99432.25;5092718;28;20114;-71
2022/03/06 10:21:25;;;;;;;6.25;1.83;;;;;;;4.63;29.20;99436.91;5092592;28;20489;-68
2022/03/06 10:24:00;;;;;;;3.38;1.25;;;;;;;4.65;28.35;99435.00;5092741;28;20036;-70
2022/03/06 10:26:28;;;;;;;4.57;1.30;;;;;;;4.70;28.77;99424.94;5092412;28;20067;-70
2022/03/06 10:28:56;;;;;;;4.53;1.30;;;;;;;4.75;28.60;99416.72;5074258;28;20056;-69
2022/03/06 10:31:24;;;;;;;6.25;1.20;;;;;;;4.89;28.40;99405.22;5092854;28;20043;-72
2022/03/06 10:34:01;;;;;;;3.22;1.15;;;;;;;5.22;27.41;99414.59;5092592;28;20135;-70
2022/03/06 10:36:41;;;;;;;5.90;1.20;;;;;;;5.37;27.36;99399.47;5092179;28;20063;-70
2022/03/06 10:39:12;;;;;;;6.47;1.40;;;;;;;5.51;26.59;99389.75;5092872;28;20081;-70
2022/03/06 10:41:40;;;;;;;4.95;1.05;;;;;;;5.21;26.98;99386.38;5093067;28;20336;-70
2022/03/06 10:44:08;;;;;;;7.05;0.93;;;;;;;5.21;26.91;99382.88;5092485;28;20030;-70
2022/03/06 10:46:35;;;;;;;6.82;1.02;;;;;;;5.15;27.40;99381.47;5091909;28;20067;-70
2022/03/06 10:49:07;;;;;;;4.80;0.80;;;;;;;5.14;27.06;99363.84;5074452;28;20543;-70
2022/03/06 10:51:44;;;;;;;3.58;1.17;;;;;;;4.95;27.17;99325.25;5092429;28;20028;-71
2022/03/06 10:54:10;;;;;;;4.90;1.35;;;;;;;5.28;27.45;99373.53;5091920;28;20024;-70
2022/03/06 10:56:37;;;;;;;3.05;1.33;;;;;;;5.39;27.20;99367.53;5092207;28;20028;-71
2022/03/06 10:59:05;;;;;;;8.13;1.20;;;;;;;5.55;27.23;99373.53;5092023;28;20034;-69
2022/03/06 11:01:31;;;;;;;4.20;1.00;;;;;;;5.57;27.46;99363.66;5092301;28;20036;-69
2022/03/06 11:03:59;;;;;;;4.68;1.13;;;;;;;5.60;26.90;99370.53;5091638;28;20093;-71
2022/03/06 11:06:26;;;;;;;4.57;1.02;;;;;;;5.53;27.13;99356.81;5091638;28;20028;-71
2022/03/06 11:08:53;;;;;;;4.38;1.27;;;;;;;5.44;27.46;99350.34;5092226;28;20567;-70
2022/03/06 11:11:20;;;;;;;3.03;1.00;;;;;;;5.34;27.54;99348.41;5092144;28;20126;-71
2022/03/06 11:13:46;;;;;;;3.92;1.20;;;;;;;5.25;28.32;99337.44;5091285;28;20028;-69
2022/03/06 11:16:11;;;;;;;2.80;1.33;;;;;;;5.12;28.63;99341.88;5073484;28;20473;-70
2022/03/06 11:18:38;;;;;;;4.13;1.20;;;;;;;5.01;28.30;99335.44;5084283;28;20425;-69
2022/03/06 11:21:04;;;;;;;4.45;1.30;;;;;;;5.00;28.77;99346.16;5053318;28;20056;-74
2022/03/06 11:23:41;;;;;;;3.97;1.33;;;;;;;4.79;29.21;99332.47;5070843;28;20119;-73
2022/03/06 11:26:10;;;;;;;7.55;1.50;;;;;;;4.64;29.30;99329.88;5052914;28;20389;-75
2022/03/06 11:29:07;;;;;;;4.68;1.33;;;;;;;4.59;28.87;99313.44;5085079;28;20513;-72
2022/03/06 11:32:05;;;;;;;6.15;1.70;;;;;;;4.47;30.36;99309.75;5089449;28;20032;-72
2022/03/06 11:34:36;;;;;;;6.53;1.38;;;;;;;4.22;30.12;99310.44;5045511;28;20040;-72